sensor_id;sensor_type;location;lat;lon;timestamp;temperature;humidity
51733;DHT22;39139;53.144;6.244;2022-12-18T00:01:36;-3.20;99.90
51733;DHT22;39139;53.144;6.244;2022-12-18T00:04:07;-3.20;99.90
51733;DHT22;39139;53.144;6.244;2022-12-18T00:06:34;-3.30;99.90
51733;DHT22;39139;53.144;6.244;2022-12-18T00:09:01;-3.30;99.90
51733;DHT22;39139;53.144;6.244;2022-12-18T00:11:29;-2.70;99.90
51733;DHT22;39139;53.144;6.244;2022-12-18T00:13:57;-3.30;99.90
51733;DHT22;39139;53.144;6.244;2022-12-18T00:16:24;-3.30;99.90
51733;DHT22;39139;53.144;6.244;2022-12-18T00:18:52;-3.40;99.90
51733;DHT22;39139;53.144;6.244;2022-12-18T00:21:19;-3.40;99.90
51733;DHT22;39139;53.144;6.244;2022-12-18T00:23:45;-3.40;99.90
51733;DHT22;39139;53.144;6.244;2022-12-18T00:26:14;-3.40;99.90
51733;DHT22;39139;53.144;6.244;2022-12-18T00:28:41;-3.40;99.90
51733;DHT22;39139;53.144;6.244;2022-12-18T00:31:09;-3.50;99.90
51733;DHT22;39139;53.144;6.244;2022-12-18T00:33:36;-3.40;99.90
51733;DHT22;39139;53.144;6.244;2022-12-18T00:36:06;-3.40;99.90
51733;DHT22;39139;53.144;6.244;2022-12-18T00:38:33;-3.50;99.90
51733;DHT22;39139;53.144;6.244;2022-12-18T00:40:58;-3.50;99.90
51733;DHT22;39139;53.144;6.244;2022-12-18T00:43:24;-3.60;99.90
51733;DHT22;39139;53.144;6.244;2022-12-18T00:45:50;-3.50;99.90
51733;DHT22;39139;53.144;6.244;2022-12-18T00:48:16;-3.50;99.90
51733;DHT22;39139;53.144;6.244;2022-12-18T00:50:41;-3.50;99.90
51733;DHT22;39139;53.144;6.244;2022-12-18T00:53:07;-3.50;99.90
51733;DHT22;39139;53.144;6.244;2022-12-18T00:55:33;-3.50;99.90
51733;DHT22;39139;53.144;6.244;2022-12-18T00:57:58;-3.60;99.90
51733;DHT22;39139;53.144;6.244;2022-12-18T01:00:24;-2.70;99.90
51733;DHT22;39139;53.144;6.244;2022-12-18T01:02:50;-3.70;99.90
51733;DHT22;39139;53.144;6.244;2022-12-18T01:05:16;-3.60;99.90
51733;DHT22;39139;53.144;6.244;2022-12-18T01:07:41;-3.70;99.90
51733;DHT22;39139;53.144;6.244;2022-12-18T01:10:08;-3.70;99.90
51733;DHT22;39139;53.144;6.244;2022-12-18T01:12:34;-3.70;99.90
51733;DHT22;39139;53.144;6.244;2022-12-18T01:15:01;-3.70;99.90
51733;DHT22;39139;53.144;6.244;2022-12-18T01:17:26;-3.70;99.90
51733;DHT22;39139;53.144;6.244;2022-12-18T01:19:52;-3.70;99.90
51733;DHT22;39139;53.144;6.244;2022-12-18T01:22:17;-3.80;99.90
51733;DHT22;39139;53.144;6.244;2022-12-18T01:24:43;-3.80;99.90
51733;DHT22;39139;53.144;6.244;2022-12-18T01:27:09;-3.90;99.90
51733;DHT22;39139;53.144;6.244;2022-12-18T01:29:34;-3.90;99.90
51733;DHT22;39139;53.144;6.244;2022-12-18T01:32:00;-3.90;99.90
51733;DHT22;39139;53.144;6.244;2022-12-18T01:34:26;-4.00;99.90
51733;DHT22;39139;53.144;6.244;2022-12-18T01:36:51;-4.00;99.90
51733;DHT22;39139;53.144;6.244;2022-12-18T01:39:18;-4.10;99.90
51733;DHT22;39139;53.144;6.244;2022-12-18T01:41:44;-4.00;99.90
51733;DHT22;39139;53.144;6.244;2022-12-18T01:50:14;-4.10;99.90
51733;DHT22;39139;53.144;6.244;2022-12-18T01:52:42;-4.10;99.90
51733;DHT22;39139;53.144;6.244;2022-12-18T01:55:09;-4.10;99.90
51733;DHT22;39139;53.144;6.244;2022-12-18T01:57:36;-4.10;99.90
51733;DHT22;39139;53.144;6.244;2022-12-18T02:00:09;-4.20;99.90
51733;DHT22;39139;53.144;6.244;2022-12-18T02:02:35;-4.20;99.90
51733;DHT22;39139;53.144;6.244;2022-12-18T02:05:02;-4.20;99.90
51733;DHT22;39139;53.144;6.244;2022-12-18T02:10:22;-4.30;99.90
51733;DHT22;39139;53.144;6.244;2022-12-18T02:13:20;-4.30;99.90
51733;DHT22;39139;53.144;6.244;2022-12-18T02:18:24;-4.40;99.90
51733;DHT22;39139;53.144;6.244;2022-12-18T02:26:16;-4.50;99.90
51733;DHT22;39139;53.144;6.244;2022-12-18T02:29:10;-4.50;99.90
51733;DHT22;39139;53.144;6.244;2022-12-18T02:31:45;-4.50;99.90
51733;DHT22;39139;53.144;6.244;2022-12-18T02:34:13;-4.60;99.90
51733;DHT22;39139;53.144;6.244;2022-12-18T02:36:41;-4.70;99.90
51733;DHT22;39139;53.144;6.244;2022-12-18T02:39:10;-4.60;99.90
51733;DHT22;39139;53.144;6.244;2022-12-18T02:41:37;-4.70;99.90
51733;DHT22;39139;53.144;6.244;2022-12-18T02:44:09;-4.70;99.90
51733;DHT22;39139;53.144;6.244;2022-12-18T02:46:39;-4.80;99.90
51733;DHT22;39139;53.144;6.244;2022-12-18T02:49:40;-4.70;99.90
51733;DHT22;39139;53.144;6.244;2022-12-18T02:57:57;-4.70;99.90
51733;DHT22;39139;53.144;6.244;2022-12-18T03:01:03;-4.70;99.90
51733;DHT22;39139;53.144;6.244;2022-12-18T03:03:31;-4.80;99.90
51733;DHT22;39139;53.144;6.244;2022-12-18T03:06:18;-4.90;99.90
51733;DHT22;39139;53.144;6.244;2022-12-18T03:08:49;-4.90;99.90
51733;DHT22;39139;53.144;6.244;2022-12-18T03:11:17;-4.90;99.90
51733;DHT22;39139;53.144;6.244;2022-12-18T03:14:03;-5.00;99.90
51733;DHT22;39139;53.144;6.244;2022-12-18T03:16:31;-5.00;99.90
51733;DHT22;39139;53.144;6.244;2022-12-18T03:19:01;-5.00;99.90
51733;DHT22;39139;53.144;6.244;2022-12-18T03:21:40;-5.00;99.90
51733;DHT22;39139;53.144;6.244;2022-12-18T03:24:09;-5.00;99.90
51733;DHT22;39139;53.144;6.244;2022-12-18T03:26:38;-5.10;99.90
51733;DHT22;39139;53.144;6.244;2022-12-18T03:29:13;-5.00;99.90
51733;DHT22;39139;53.144;6.244;2022-12-18T03:31:42;-5.10;99.90
51733;DHT22;39139;53.144;6.244;2022-12-18T03:34:17;-5.10;99.90
51733;DHT22;39139;53.144;6.244;2022-12-18T03:36:45;-5.10;99.90
51733;DHT22;39139;53.144;6.244;2022-12-18T03:39:10;-4.10;99.90
51733;DHT22;39139;53.144;6.244;2022-12-18T03:41:52;-5.20;99.90
51733;DHT22;39139;53.144;6.244;2022-12-18T03:47:21;-5.20;99.90
51733;DHT22;39139;53.144;6.244;2022-12-18T03:50:04;-5.20;99.90
51733;DHT22;39139;53.144;6.244;2022-12-18T03:52:37;-5.20;99.90
51733;DHT22;39139;53.144;6.244;2022-12-18T03:55:05;-5.20;99.90
51733;DHT22;39139;53.144;6.244;2022-12-18T03:57:33;-5.20;99.90
51733;DHT22;39139;53.144;6.244;2022-12-18T04:00:19;-5.30;99.90
51733;DHT22;39139;53.144;6.244;2022-12-18T04:02:50;-5.30;99.90
51733;DHT22;39139;53.144;6.244;2022-12-18T04:05:18;-5.30;99.90
51733;DHT22;39139;53.144;6.244;2022-12-18T04:07:49;-5.30;99.90
51733;DHT22;39139;53.144;6.244;2022-12-18T04:10:16;-5.20;99.90
51733;DHT22;39139;53.144;6.244;2022-12-18T04:12:43;-5.30;99.90
51733;DHT22;39139;53.144;6.244;2022-12-18T04:15:09;-5.30;99.90
51733;DHT22;39139;53.144;6.244;2022-12-18T04:17:36;-5.40;99.90
51733;DHT22;39139;53.144;6.244;2022-12-18T04:20:02;-5.40;99.90
51733;DHT22;39139;53.144;6.244;2022-12-18T04:22:28;-5.50;99.90
51733;DHT22;39139;53.144;6.244;2022-12-18T04:24:53;-5.40;99.90
51733;DHT22;39139;53.144;6.244;2022-12-18T04:27:19;-5.50;99.90
51733;DHT22;39139;53.144;6.244;2022-12-18T04:29:45;-5.50;99.90
51733;DHT22;39139;53.144;6.244;2022-12-18T04:32:10;-5.50;99.90
51733;DHT22;39139;53.144;6.244;2022-12-18T04:34:36;-5.50;99.90
51733;DHT22;39139;53.144;6.244;2022-12-18T04:37:01;-5.50;99.90
51733;DHT22;39139;53.144;6.244;2022-12-18T04:39:27;-5.50;99.90
51733;DHT22;39139;53.144;6.244;2022-12-18T04:41:53;-5.50;99.90
51733;DHT22;39139;53.144;6.244;2022-12-18T04:44:18;-5.60;99.90
51733;DHT22;39139;53.144;6.244;2022-12-18T04:46:44;-5.50;99.90
51733;DHT22;39139;53.144;6.244;2022-12-18T04:49:10;-5.60;99.90
51733;DHT22;39139;53.144;6.244;2022-12-18T04:51:39;-5.60;99.90
51733;DHT22;39139;53.144;6.244;2022-12-18T04:54:04;-5.60;99.90
51733;DHT22;39139;53.144;6.244;2022-12-18T04:56:31;-5.60;99.90
51733;DHT22;39139;53.144;6.244;2022-12-18T04:58:57;-5.70;99.90
51733;DHT22;39139;53.144;6.244;2022-12-18T05:01:23;-7.10;99.90
51733;DHT22;39139;53.144;6.244;2022-12-18T05:03:48;-5.70;99.90
51733;DHT22;39139;53.144;6.244;2022-12-18T05:06:15;-5.70;99.90
51733;DHT22;39139;53.144;6.244;2022-12-18T05:08:41;-5.80;99.90
51733;DHT22;39139;53.144;6.244;2022-12-18T05:11:12;-5.80;99.90
51733;DHT22;39139;53.144;6.244;2022-12-18T05:13:41;-5.80;99.90
51733;DHT22;39139;53.144;6.244;2022-12-18T05:16:07;-6.10;99.90
51733;DHT22;39139;53.144;6.244;2022-12-18T05:18:33;-5.80;99.90
51733;DHT22;39139;53.144;6.244;2022-12-18T05:20:58;-5.80;99.90
51733;DHT22;39139;53.144;6.244;2022-12-18T05:23:24;-5.90;99.90
51733;DHT22;39139;53.144;6.244;2022-12-18T05:25:55;-5.40;99.90
51733;DHT22;39139;53.144;6.244;2022-12-18T05:28:22;-5.90;99.90
51733;DHT22;39139;53.144;6.244;2022-12-18T05:30:54;-5.90;99.90
51733;DHT22;39139;53.144;6.244;2022-12-18T05:33:21;-5.90;99.90
51733;DHT22;39139;53.144;6.244;2022-12-18T05:35:51;-5.90;99.90
51733;DHT22;39139;53.144;6.244;2022-12-18T05:38:17;-5.80;99.90
51733;DHT22;39139;53.144;6.244;2022-12-18T05:40:43;-5.90;99.90
51733;DHT22;39139;53.144;6.244;2022-12-18T05:43:09;-5.90;99.90
51733;DHT22;39139;53.144;6.244;2022-12-18T05:45:39;-5.90;99.90
51733;DHT22;39139;53.144;6.244;2022-12-18T05:48:05;-6.00;99.90
51733;DHT22;39139;53.144;6.244;2022-12-18T05:50:37;-6.00;99.90
51733;DHT22;39139;53.144;6.244;2022-12-18T05:53:04;-6.00;99.90
51733;DHT22;39139;53.144;6.244;2022-12-18T05:55:33;-6.00;99.90
51733;DHT22;39139;53.144;6.244;2022-12-18T05:57:59;-6.00;99.90
51733;DHT22;39139;53.144;6.244;2022-12-18T06:00:24;-6.10;99.90
51733;DHT22;39139;53.144;6.244;2022-12-18T06:02:50;-6.10;99.90
51733;DHT22;39139;53.144;6.244;2022-12-18T06:05:16;-6.80;99.90
51733;DHT22;39139;53.144;6.244;2022-12-18T06:07:41;-6.10;99.90
51733;DHT22;39139;53.144;6.244;2022-12-18T06:10:07;-6.10;99.90
51733;DHT22;39139;53.144;6.244;2022-12-18T06:12:33;-6.10;99.90
51733;DHT22;39139;53.144;6.244;2022-12-18T06:14:59;-6.10;99.90
51733;DHT22;39139;53.144;6.244;2022-12-18T06:17:29;-6.10;99.90
51733;DHT22;39139;53.144;6.244;2022-12-18T06:19:55;-6.10;99.90
51733;DHT22;39139;53.144;6.244;2022-12-18T06:22:20;-6.10;99.90
51733;DHT22;39139;53.144;6.244;2022-12-18T06:24:46;-6.10;99.90
51733;DHT22;39139;53.144;6.244;2022-12-18T06:27:12;-6.10;99.90
51733;DHT22;39139;53.144;6.244;2022-12-18T06:29:38;-6.00;99.90
51733;DHT22;39139;53.144;6.244;2022-12-18T06:32:04;-6.00;99.90
51733;DHT22;39139;53.144;6.244;2022-12-18T06:34:29;-6.00;99.90
51733;DHT22;39139;53.144;6.244;2022-12-18T06:36:55;-6.00;99.90
51733;DHT22;39139;53.144;6.244;2022-12-18T06:39:20;-6.00;99.90
51733;DHT22;39139;53.144;6.244;2022-12-18T06:41:46;-6.00;99.90
51733;DHT22;39139;53.144;6.244;2022-12-18T06:44:12;-6.00;99.90
51733;DHT22;39139;53.144;6.244;2022-12-18T06:46:37;-6.00;99.90
51733;DHT22;39139;53.144;6.244;2022-12-18T06:49:03;-6.00;99.90
51733;DHT22;39139;53.144;6.244;2022-12-18T06:51:29;-6.00;99.90
51733;DHT22;39139;53.144;6.244;2022-12-18T06:53:55;-6.00;99.90
51733;DHT22;39139;53.144;6.244;2022-12-18T06:56:20;-4.90;99.90
51733;DHT22;39139;53.144;6.244;2022-12-18T06:58:46;-6.00;99.90
51733;DHT22;39139;53.144;6.244;2022-12-18T07:01:12;-6.00;99.90
51733;DHT22;39139;53.144;6.244;2022-12-18T07:03:40;-6.00;99.90
51733;DHT22;39139;53.144;6.244;2022-12-18T07:06:11;-6.00;99.90
51733;DHT22;39139;53.144;6.244;2022-12-18T07:08:37;-6.10;99.90
51733;DHT22;39139;53.144;6.244;2022-12-18T07:11:04;-6.10;99.90
51733;DHT22;39139;53.144;6.244;2022-12-18T07:13:30;-5.60;99.90
51733;DHT22;39139;53.144;6.244;2022-12-18T07:16:03;-6.10;99.90
51733;DHT22;39139;53.144;6.244;2022-12-18T07:18:29;-6.10;99.90
51733;DHT22;39139;53.144;6.244;2022-12-18T07:20:55;-6.10;99.90
51733;DHT22;39139;53.144;6.244;2022-12-18T07:23:20;-6.10;99.90
51733;DHT22;39139;53.144;6.244;2022-12-18T07:25:46;-6.10;99.90
51733;DHT22;39139;53.144;6.244;2022-12-18T07:28:11;-6.10;99.90
51733;DHT22;39139;53.144;6.244;2022-12-18T07:30:38;-6.10;99.90
51733;DHT22;39139;53.144;6.244;2022-12-18T07:33:03;-6.10;99.90
51733;DHT22;39139;53.144;6.244;2022-12-18T07:35:29;-6.10;99.90
51733;DHT22;39139;53.144;6.244;2022-12-18T07:37:55;-6.00;99.90
51733;DHT22;39139;53.144;6.244;2022-12-18T07:40:20;-6.00;99.90
51733;DHT22;39139;53.144;6.244;2022-12-18T07:42:46;-6.00;99.90
51733;DHT22;39139;53.144;6.244;2022-12-18T07:45:12;-6.00;99.90
51733;DHT22;39139;53.144;6.244;2022-12-18T07:47:37;-6.00;99.90
51733;DHT22;39139;53.144;6.244;2022-12-18T07:50:04;-6.00;99.90
51733;DHT22;39139;53.144;6.244;2022-12-18T07:52:30;-5.90;99.90
51733;DHT22;39139;53.144;6.244;2022-12-18T07:54:56;-5.90;99.90
51733;DHT22;39139;53.144;6.244;2022-12-18T07:57:22;-5.90;99.90
51733;DHT22;39139;53.144;6.244;2022-12-18T07:59:47;-5.90;99.90
51733;DHT22;39139;53.144;6.244;2022-12-18T08:02:13;-5.80;99.90
51733;DHT22;39139;53.144;6.244;2022-12-18T08:04:39;-5.60;99.90
51733;DHT22;39139;53.144;6.244;2022-12-18T08:07:04;-5.70;99.90
51733;DHT22;39139;53.144;6.244;2022-12-18T08:09:30;-5.80;99.90
51733;DHT22;39139;53.144;6.244;2022-12-18T08:11:55;-5.60;99.90
51733;DHT22;39139;53.144;6.244;2022-12-18T08:14:21;-5.60;99.90
51733;DHT22;39139;53.144;6.244;2022-12-18T08:16:47;-5.60;99.90
51733;DHT22;39139;53.144;6.244;2022-12-18T08:19:12;-6.80;99.90
51733;DHT22;39139;53.144;6.244;2022-12-18T08:21:38;-5.50;99.90
51733;DHT22;39139;53.144;6.244;2022-12-18T08:24:04;-5.50;99.90
51733;DHT22;39139;53.144;6.244;2022-12-18T08:26:30;-5.40;99.90
51733;DHT22;39139;53.144;6.244;2022-12-18T08:28:58;-5.40;99.90
51733;DHT22;39139;53.144;6.244;2022-12-18T08:31:25;-5.40;99.90
51733;DHT22;39139;53.144;6.244;2022-12-18T08:33:52;-5.30;99.90
51733;DHT22;39139;53.144;6.244;2022-12-18T08:36:19;-5.30;99.90
51733;DHT22;39139;53.144;6.244;2022-12-18T08:38:45;-5.20;99.90
51733;DHT22;39139;53.144;6.244;2022-12-18T08:41:13;-5.20;99.90
51733;DHT22;39139;53.144;6.244;2022-12-18T08:43:40;-5.10;99.90
51733;DHT22;39139;53.144;6.244;2022-12-18T08:46:44;-5.00;99.90
51733;DHT22;39139;53.144;6.244;2022-12-18T08:49:11;-5.50;99.90
51733;DHT22;39139;53.144;6.244;2022-12-18T08:51:37;-4.90;99.90
51733;DHT22;39139;53.144;6.244;2022-12-18T08:54:03;-4.90;99.90
51733;DHT22;39139;53.144;6.244;2022-12-18T08:56:29;-4.80;99.90
51733;DHT22;39139;53.144;6.244;2022-12-18T08:58:56;-4.70;99.90
51733;DHT22;39139;53.144;6.244;2022-12-18T09:01:22;-4.60;99.90
51733;DHT22;39139;53.144;6.244;2022-12-18T09:03:49;-4.50;99.90
51733;DHT22;39139;53.144;6.244;2022-12-18T09:06:16;-4.50;99.90
51733;DHT22;39139;53.144;6.244;2022-12-18T09:08:43;-4.40;99.90
51733;DHT22;39139;53.144;6.244;2022-12-18T09:11:24;-4.30;99.90
51733;DHT22;39139;53.144;6.244;2022-12-18T09:13:50;-4.20;99.90
51733;DHT22;39139;53.144;6.244;2022-12-18T09:16:16;-4.10;99.90
51733;DHT22;39139;53.144;6.244;2022-12-18T09:18:42;-4.10;99.90
51733;DHT22;39139;53.144;6.244;2022-12-18T09:21:13;-4.10;99.90
51733;DHT22;39139;53.144;6.244;2022-12-18T09:23:39;-4.00;99.90
51733;DHT22;39139;53.144;6.244;2022-12-18T09:26:05;-3.80;99.90
51733;DHT22;39139;53.144;6.244;2022-12-18T09:28:31;-3.70;99.90
51733;DHT22;39139;53.144;6.244;2022-12-18T09:30:56;-3.60;99.90
51733;DHT22;39139;53.144;6.244;2022-12-18T09:33:22;-3.40;99.90
51733;DHT22;39139;53.144;6.244;2022-12-18T09:35:48;-3.40;99.90
51733;DHT22;39139;53.144;6.244;2022-12-18T09:38:17;-3.30;99.90
51733;DHT22;39139;53.144;6.244;2022-12-18T09:40:48;-3.20;99.90
51733;DHT22;39139;53.144;6.244;2022-12-18T09:43:20;-3.10;99.90
51733;DHT22;39139;53.144;6.244;2022-12-18T09:46:11;-3.20;99.90
51733;DHT22;39139;53.144;6.244;2022-12-18T09:48:42;-3.10;99.90
51733;DHT22;39139;53.144;6.244;2022-12-18T09:51:17;-3.10;99.90
51733;DHT22;39139;53.144;6.244;2022-12-18T09:54:01;-3.00;99.90
51733;DHT22;39139;53.144;6.244;2022-12-18T09:56:34;-2.90;99.90
51733;DHT22;39139;53.144;6.244;2022-12-18T09:59:02;-2.70;99.90
51733;DHT22;39139;53.144;6.244;2022-12-18T10:01:29;-2.60;99.90
51733;DHT22;39139;53.144;6.244;2022-12-18T10:03:55;-2.60;99.90
51733;DHT22;39139;53.144;6.244;2022-12-18T10:09:07;-2.80;99.90
51733;DHT22;39139;53.144;6.244;2022-12-18T10:14:57;-2.60;99.90
51733;DHT22;39139;53.144;6.244;2022-12-18T10:17:40;-2.40;99.90
51733;DHT22;39139;53.144;6.244;2022-12-18T10:20:15;-2.30;99.90
51733;DHT22;39139;53.144;6.244;2022-12-18T10:28:18;-2.40;99.90
51733;DHT22;39139;53.144;6.244;2022-12-18T10:30:44;-2.40;99.90
51733;DHT22;39139;53.144;6.244;2022-12-18T10:33:16;-2.30;99.90
51733;DHT22;39139;53.144;6.244;2022-12-18T10:35:43;-2.30;99.90
51733;DHT22;39139;53.144;6.244;2022-12-18T10:40:59;-2.30;99.90
51733;DHT22;39139;53.144;6.244;2022-12-18T10:43:33;-2.30;99.90
51733;DHT22;39139;53.144;6.244;2022-12-18T10:51:02;-2.40;99.90
51733;DHT22;39139;53.144;6.244;2022-12-18T10:53:31;-2.40;99.90
51733;DHT22;39139;53.144;6.244;2022-12-18T10:55:58;-2.40;99.90
51733;DHT22;39139;53.144;6.244;2022-12-18T10:58:29;-2.40;99.90
51733;DHT22;39139;53.144;6.244;2022-12-18T11:01:15;-2.40;99.90
51733;DHT22;39139;53.144;6.244;2022-12-18T11:03:46;-2.40;99.90
51733;DHT22;39139;53.144;6.244;2022-12-18T11:06:24;-2.40;99.90
51733;DHT22;39139;53.144;6.244;2022-12-18T11:09:05;-2.40;99.90
51733;DHT22;39139;53.144;6.244;2022-12-18T11:11:32;-2.40;99.90
51733;DHT22;39139;53.144;6.244;2022-12-18T11:14:02;-2.30;99.90
51733;DHT22;39139;53.144;6.244;2022-12-18T11:16:30;-2.30;99.90
51733;DHT22;39139;53.144;6.244;2022-12-18T11:21:54;-2.30;99.90
51733;DHT22;39139;53.144;6.244;2022-12-18T11:24:34;-2.20;99.90
51733;DHT22;39139;53.144;6.244;2022-12-18T11:27:16;-2.20;99.90
51733;DHT22;39139;53.144;6.244;2022-12-18T11:29:43;-2.20;99.90
51733;DHT22;39139;53.144;6.244;2022-12-18T11:34:49;-2.10;99.90
51733;DHT22;39139;53.144;6.244;2022-12-18T11:37:17;-2.10;99.90
51733;DHT22;39139;53.144;6.244;2022-12-18T11:39:51;-2.10;99.90
51733;DHT22;39139;53.144;6.244;2022-12-18T11:42:31;-2.10;99.90
51733;DHT22;39139;53.144;6.244;2022-12-18T11:47:51;-2.10;99.90
51733;DHT22;39139;53.144;6.244;2022-12-18T11:50:24;-2.10;99.90
51733;DHT22;39139;53.144;6.244;2022-12-18T11:52:50;-2.10;99.90
51733;DHT22;39139;53.144;6.244;2022-12-18T11:55:48;-2.00;99.90
51733;DHT22;39139;53.144;6.244;2022-12-18T12:01:11;-2.00;99.90
51733;DHT22;39139;53.144;6.244;2022-12-18T12:17:42;-1.80;99.90
51733;DHT22;39139;53.144;6.244;2022-12-18T12:20:22;-1.70;99.90
51733;DHT22;39139;53.144;6.244;2022-12-18T12:23:07;-1.70;99.90
51733;DHT22;39139;53.144;6.244;2022-12-18T12:25:46;-1.70;99.90
51733;DHT22;39139;53.144;6.244;2022-12-18T12:28:54;-1.70;99.90
51733;DHT22;39139;53.144;6.244;2022-12-18T12:39:36;-1.40;99.90
51733;DHT22;39139;53.144;6.244;2022-12-18T12:42:05;-1.40;99.90
51733;DHT22;39139;53.144;6.244;2022-12-18T12:44:55;-1.30;99.90
51733;DHT22;39139;53.144;6.244;2022-12-18T12:47:28;-1.30;99.90
51733;DHT22;39139;53.144;6.244;2022-12-18T12:49:57;-1.30;99.90
51733;DHT22;39139;53.144;6.244;2022-12-18T12:52:33;-1.30;99.90
51733;DHT22;39139;53.144;6.244;2022-12-18T12:55:02;-1.30;99.90
51733;DHT22;39139;53.144;6.244;2022-12-18T12:57:39;-1.10;99.90
51733;DHT22;39139;53.144;6.244;2022-12-18T13:00:11;-0.20;99.90
51733;DHT22;39139;53.144;6.244;2022-12-18T13:08:09;-1.20;99.90
51733;DHT22;39139;53.144;6.244;2022-12-18T13:10:39;-1.20;99.90
51733;DHT22;39139;53.144;6.244;2022-12-18T13:13:11;-1.20;99.90
51733;DHT22;39139;53.144;6.244;2022-12-18T13:16:06;-1.20;99.90
51733;DHT22;39139;53.144;6.244;2022-12-18T13:18:33;-1.10;99.90
51733;DHT22;39139;53.144;6.244;2022-12-18T13:31:01;-1.20;99.90
51733;DHT22;39139;53.144;6.244;2022-12-18T13:33:37;-1.20;99.90
51733;DHT22;39139;53.144;6.244;2022-12-18T13:36:14;-1.10;99.90
51733;DHT22;39139;53.144;6.244;2022-12-18T13:38:41;-1.10;99.90
51733;DHT22;39139;53.144;6.244;2022-12-18T13:41:26;-1.10;99.90
51733;DHT22;39139;53.144;6.244;2022-12-18T13:43:53;-1.10;99.90
51733;DHT22;39139;53.144;6.244;2022-12-18T13:49:03;-1.10;99.90
51733;DHT22;39139;53.144;6.244;2022-12-18T13:51:32;-1.10;99.90
51733;DHT22;39139;53.144;6.244;2022-12-18T13:56:43;-1.10;99.90
51733;DHT22;39139;53.144;6.244;2022-12-18T13:59:21;-1.10;99.90
51733;DHT22;39139;53.144;6.244;2022-12-18T14:01:59;-1.10;99.90
51733;DHT22;39139;53.144;6.244;2022-12-18T14:04:27;-1.10;99.90
51733;DHT22;39139;53.144;6.244;2022-12-18T14:07:05;-1.10;99.90
51733;DHT22;39139;53.144;6.244;2022-12-18T14:09:39;-0.20;99.90
51733;DHT22;39139;53.144;6.244;2022-12-18T14:12:06;-1.10;99.90
51733;DHT22;39139;53.144;6.244;2022-12-18T14:14:52;-1.10;99.90
51733;DHT22;39139;53.144;6.244;2022-12-18T14:17:18;-1.20;99.90
51733;DHT22;39139;53.144;6.244;2022-12-18T14:19:46;-1.20;99.90
51733;DHT22;39139;53.144;6.244;2022-12-18T14:22:21;-1.20;99.90
51733;DHT22;39139;53.144;6.244;2022-12-18T14:25:26;-1.20;99.90
51733;DHT22;39139;53.144;6.244;2022-12-18T14:28:12;-1.20;99.90
51733;DHT22;39139;53.144;6.244;2022-12-18T14:30:41;-1.20;99.90
51733;DHT22;39139;53.144;6.244;2022-12-18T14:33:12;-1.20;99.90
51733;DHT22;39139;53.144;6.244;2022-12-18T14:35:41;-1.20;99.90
51733;DHT22;39139;53.144;6.244;2022-12-18T14:40:43;0.10;99.90
51733;DHT22;39139;53.144;6.244;2022-12-18T14:43:12;-1.20;99.90
51733;DHT22;39139;53.144;6.244;2022-12-18T14:45:44;-1.20;99.90
51733;DHT22;39139;53.144;6.244;2022-12-18T14:50:37;-1.20;99.90
51733;DHT22;39139;53.144;6.244;2022-12-18T14:53:03;-1.20;99.90
51733;DHT22;39139;53.144;6.244;2022-12-18T14:55:29;-0.90;99.90
51733;DHT22;39139;53.144;6.244;2022-12-18T14:57:56;-1.20;99.90
51733;DHT22;39139;53.144;6.244;2022-12-18T15:00:24;-1.20;99.90
51733;DHT22;39139;53.144;6.244;2022-12-18T15:02:54;-1.20;99.90
51733;DHT22;39139;53.144;6.244;2022-12-18T15:05:25;-1.20;99.90
51733;DHT22;39139;53.144;6.244;2022-12-18T15:07:53;-1.20;99.90
51733;DHT22;39139;53.144;6.244;2022-12-18T15:10:31;-1.20;99.90
51733;DHT22;39139;53.144;6.244;2022-12-18T15:20:27;-1.20;99.90
51733;DHT22;39139;53.144;6.244;2022-12-18T15:22:56;-1.20;99.90
51733;DHT22;39139;53.144;6.244;2022-12-18T15:25:36;-1.10;99.90
51733;DHT22;39139;53.144;6.244;2022-12-18T15:28:03;-1.10;99.90
51733;DHT22;39139;53.144;6.244;2022-12-18T15:31:20;-1.10;99.90
51733;DHT22;39139;53.144;6.244;2022-12-18T15:36:38;-1.20;99.90
51733;DHT22;39139;53.144;6.244;2022-12-18T15:39:04;-1.20;99.90
51733;DHT22;39139;53.144;6.244;2022-12-18T15:41:32;-1.10;99.90
51733;DHT22;39139;53.144;6.244;2022-12-18T15:43:59;0.00;99.90
51733;DHT22;39139;53.144;6.244;2022-12-18T15:46:25;-0.50;99.90
51733;DHT22;39139;53.144;6.244;2022-12-18T15:48:53;-1.20;99.90
51733;DHT22;39139;53.144;6.244;2022-12-18T15:51:35;-1.10;99.90
51733;DHT22;39139;53.144;6.244;2022-12-18T15:54:04;-1.20;99.90
51733;DHT22;39139;53.144;6.244;2022-12-18T15:56:30;-1.20;99.90
51733;DHT22;39139;53.144;6.244;2022-12-18T15:59:17;-1.20;99.90
51733;DHT22;39139;53.144;6.244;2022-12-18T16:01:45;-1.20;99.90
51733;DHT22;39139;53.144;6.244;2022-12-18T16:04:12;-1.20;99.90
51733;DHT22;39139;53.144;6.244;2022-12-18T16:06:39;-1.20;99.90
51733;DHT22;39139;53.144;6.244;2022-12-18T16:09:04;-1.10;99.90
51733;DHT22;39139;53.144;6.244;2022-12-18T16:11:32;-1.10;99.90
51733;DHT22;39139;53.144;6.244;2022-12-18T16:14:25;-1.10;99.90
51733;DHT22;39139;53.144;6.244;2022-12-18T16:17:03;-1.20;99.90
51733;DHT22;39139;53.144;6.244;2022-12-18T16:19:30;-1.20;99.90
51733;DHT22;39139;53.144;6.244;2022-12-18T16:21:57;-1.20;99.90
51733;DHT22;39139;53.144;6.244;2022-12-18T16:24:26;-1.20;99.90
51733;DHT22;39139;53.144;6.244;2022-12-18T16:26:52;-1.20;99.90
51733;DHT22;39139;53.144;6.244;2022-12-18T16:29:19;-1.20;99.90
51733;DHT22;39139;53.144;6.244;2022-12-18T16:31:50;-1.20;99.90
51733;DHT22;39139;53.144;6.244;2022-12-18T16:34:21;-1.20;99.90
51733;DHT22;39139;53.144;6.244;2022-12-18T16:36:48;-1.10;99.90
51733;DHT22;39139;53.144;6.244;2022-12-18T16:39:15;-1.20;99.90
51733;DHT22;39139;53.144;6.244;2022-12-18T16:41:40;-1.20;99.90
51733;DHT22;39139;53.144;6.244;2022-12-18T16:44:06;-1.20;99.90
51733;DHT22;39139;53.144;6.244;2022-12-18T16:46:32;-1.10;99.90
51733;DHT22;39139;53.144;6.244;2022-12-18T16:48:58;-1.10;99.90
51733;DHT22;39139;53.144;6.244;2022-12-18T16:51:26;-1.10;99.90
51733;DHT22;39139;53.144;6.244;2022-12-18T16:53:52;-1.00;99.90
51733;DHT22;39139;53.144;6.244;2022-12-18T16:56:18;-1.00;99.90
51733;DHT22;39139;53.144;6.244;2022-12-18T16:58:52;-1.00;99.90
51733;DHT22;39139;53.144;6.244;2022-12-18T17:01:19;-1.10;99.90
51733;DHT22;39139;53.144;6.244;2022-12-18T17:03:54;-1.10;99.90
51733;DHT22;39139;53.144;6.244;2022-12-18T17:06:24;-1.00;99.90
51733;DHT22;39139;53.144;6.244;2022-12-18T17:08:57;-0.90;99.90
51733;DHT22;39139;53.144;6.244;2022-12-18T17:11:27;-0.90;99.90
51733;DHT22;39139;53.144;6.244;2022-12-18T17:13:54;-0.90;99.90
51733;DHT22;39139;53.144;6.244;2022-12-18T17:16:20;-0.90;99.90
51733;DHT22;39139;53.144;6.244;2022-12-18T17:18:46;-0.90;99.90
51733;DHT22;39139;53.144;6.244;2022-12-18T17:21:13;-0.90;99.90
51733;DHT22;39139;53.144;6.244;2022-12-18T17:23:43;-0.90;99.90
51733;DHT22;39139;53.144;6.244;2022-12-18T17:26:09;-0.90;99.90
51733;DHT22;39139;53.144;6.244;2022-12-18T17:28:37;-0.90;99.90
51733;DHT22;39139;53.144;6.244;2022-12-18T17:31:10;-0.90;99.90
51733;DHT22;39139;53.144;6.244;2022-12-18T17:33:36;-0.90;99.90
51733;DHT22;39139;53.144;6.244;2022-12-18T17:36:02;-0.90;99.90
51733;DHT22;39139;53.144;6.244;2022-12-18T17:38:28;-0.90;99.90
51733;DHT22;39139;53.144;6.244;2022-12-18T17:40:54;0.30;99.90